Sanger, Texas
Current Conditions -  °F | °C
As of 10:53 AM on Thursday 30 Oct 2014 (Local Time) from KDTO Reporting Station
Clear Clear  
Wind Chill: 68°   Ceiling: Unl
Heat Index: 68°   Visibility: 10mi
Dew Point: 47°   Wind: 13mph
Humidity: 47%   Direction: 190°S
Pressure: 30.16"   Gusts: NA
Location:  33.36°N, 97.17°W
Report Text: KDTO 301553Z 19011KT 10SM CLR 20/08 A3016 RMK AO2 SLP210 T02000083
Loading
Personal Weather Stations






























Interactive Weather Map
Tropical Storm Tracking
New forecast layout! Learn more

10-Day Weather Forecast

Advertisements
Track Severe Weather on mobile